createdAt,value
2019-05-15T00:05:33.924Z,91.90
2019-05-15T00:11:36.088Z,92.00
2019-05-15T00:17:39.380Z,92.10
2019-05-15T00:23:42.044Z,92.00
2019-05-15T00:29:44.273Z,91.80
2019-05-15T00:35:48.594Z,92.20
2019-05-15T00:41:54.592Z,92.20
2019-05-15T00:47:54.700Z,92.30
2019-05-15T00:53:58.958Z,92.10
2019-05-15T01:00:01.097Z,91.90
2019-05-15T01:06:03.435Z,92.00
2019-05-15T01:12:05.709Z,91.80
2019-05-15T01:18:09.339Z,91.60
2019-05-15T01:24:11.877Z,91.70
2019-05-15T01:30:14.391Z,91.60
2019-05-15T01:36:19.104Z,91.50
2019-05-15T01:42:20.783Z,91.30
2019-05-15T01:48:23.019Z,91.50
2019-05-15T01:54:25.172Z,91.30
2019-05-15T02:00:28.227Z,91.30
2019-05-15T02:06:32.667Z,91.30
2019-05-15T02:12:34.823Z,91.20
2019-05-15T02:18:39.187Z,91.30
2019-05-15T02:24:41.140Z,91.30
2019-05-15T02:30:43.402Z,91.30
2019-05-15T02:36:49.227Z,91.20
2019-05-15T02:42:50.713Z,91.00
2019-05-15T02:48:52.860Z,90.90
2019-05-15T02:54:55.121Z,90.80
2019-05-15T03:00:59.332Z,91.30
2019-05-15T03:07:01.481Z,90.80
2019-05-15T03:13:03.619Z,91.20
2019-05-15T03:19:05.860Z,91.10
2019-05-15T03:25:10.588Z,90.90
2019-05-15T03:31:33.307Z,91.40
2019-05-15T03:37:21.505Z,91.10
2019-05-15T03:43:20.675Z,91.60
2019-05-15T03:49:22.799Z,91.30
2019-05-15T03:55:25.149Z,91.00
2019-05-15T04:01:37.560Z,91.00
2019-05-15T04:07:31.456Z,91.30
2019-05-15T04:13:33.594Z,90.90
2019-05-15T04:19:38.871Z,91.00
2019-05-15T04:25:40.341Z,90.60
2019-05-15T04:31:56.364Z,90.80
2019-05-15T04:37:49.415Z,90.80
2019-05-15T04:43:50.585Z,90.40
2019-05-15T04:49:52.748Z,90.80
2019-05-15T04:55:54.945Z,90.30
2019-05-15T05:02:16.227Z,90.30
2019-05-15T05:08:04.785Z,90.00
2019-05-15T05:14:08.456Z,90.10
2019-05-15T05:20:12.226Z,89.20
2019-05-15T05:26:14.546Z,89.70
2019-05-15T05:32:30.530Z,89.30
2019-05-15T05:38:21.350Z,89.20
2019-05-15T05:44:23.884Z,88.90
2019-05-15T05:50:38.492Z,88.60
2019-05-15T05:56:41.361Z,88.50
2019-05-15T06:02:48.143Z,89.30
2019-05-15T06:08:48.250Z,90.30
2019-05-15T06:14:50.469Z,90.10
2019-05-15T06:20:52.775Z,88.90
2019-05-15T06:26:54.960Z,90.20
2019-05-15T06:33:08.308Z,90.30
2019-05-15T06:39:01.167Z,90.80
2019-05-15T06:45:03.767Z,91.70
2019-05-15T06:51:05.963Z,91.40
2019-05-15T06:57:09.090Z,91.80
2019-05-15T07:03:21.562Z,92.10
2019-05-15T07:09:17.812Z,92.10
2019-05-15T07:15:19.527Z,92.60
2019-05-15T07:21:21.769Z,93.00
2019-05-15T07:27:24.083Z,93.80
2019-05-15T07:33:36.711Z,93.70
2019-05-15T07:39:30.754Z,94.10
2019-05-15T07:45:33.014Z,94.30
2019-05-15T07:51:35.236Z,93.90
2019-05-15T07:57:39.418Z,94.00
2019-05-15T08:03:55.344Z,94.00
2019-05-15T08:09:48.794Z,93.70
2019-05-15T08:15:51.194Z,93.40
2019-05-15T08:21:53.693Z,93.40
2019-05-15T08:27:55.899Z,93.40
2019-05-15T08:34:12.303Z,93.40
2019-05-15T08:40:02.455Z,93.90
2019-05-15T08:46:04.714Z,93.20
2019-05-15T08:52:09.995Z,93.10
2019-05-15T08:58:14.115Z,93.40
2019-05-15T09:04:27.965Z,92.70
2019-05-15T09:10:20.132Z,93.50
2019-05-15T09:16:22.719Z,93.40
2019-05-15T09:22:24.975Z,92.80
2019-05-15T09:28:29.571Z,92.50
2019-05-15T09:34:46.705Z,92.60
2019-05-15T09:40:45.211Z,92.90
2019-05-15T09:46:40.500Z,92.60
2019-05-15T09:52:42.771Z,92.60
2019-05-15T09:58:45.056Z,92.40
2019-05-15T10:04:49.596Z,92.50
2019-05-15T10:10:54.032Z,92.40
2019-05-15T10:16:58.390Z,91.70
2019-05-15T10:23:00.448Z,90.30
2019-05-15T10:29:02.711Z,89.20
2019-05-15T10:35:21.725Z,90.30
2019-05-15T10:41:15.020Z,90.30
2019-05-15T10:47:15.821Z,91.50
2019-05-15T10:53:18.983Z,91.20
2019-05-15T10:59:21.977Z,90.70
2019-05-15T11:05:38.431Z,90.20
2019-05-15T11:11:29.289Z,90.20
2019-05-15T11:17:31.837Z,90.10
2019-05-15T11:23:34.279Z,89.20
2019-05-15T11:29:38.184Z,90.00
2019-05-15T11:35:56.428Z,90.30
2019-05-15T11:41:44.468Z,90.20
2019-05-15T11:47:48.313Z,90.90
2019-05-15T11:53:50.619Z,91.20
2019-05-15T11:59:55.217Z,91.90
2019-05-15T12:05:59.628Z,91.90
2019-05-15T12:12:01.405Z,92.30
2019-05-15T12:18:04.800Z,92.20
2019-05-15T12:24:09.035Z,92.60
2019-05-15T12:30:13.959Z,93.00
2019-05-15T12:36:40.990Z,93.50
2019-05-15T13:00:32.694Z,93.80
2019-05-15T13:06:47.271Z,93.60
2019-05-15T13:12:54.304Z,93.70
2019-05-15T13:18:43.970Z,93.90
2019-05-15T13:24:48.273Z,93.70
2019-05-15T13:30:50.779Z,93.90
2019-05-15T13:36:53.108Z,94.10
2019-05-15T13:42:55.244Z,93.80
2019-05-15T13:48:59.553Z,93.90
2019-05-15T13:55:01.528Z,94.10
2019-05-15T14:01:03.908Z,94.10
2019-05-15T14:07:08.395Z,93.40
2019-05-15T14:13:10.595Z,93.40
2019-05-15T14:19:12.895Z,93.30
2019-05-15T14:25:15.057Z,92.80
2019-05-15T14:31:18.313Z,93.10
2019-05-15T14:37:20.638Z,92.50
2019-05-15T14:43:22.965Z,92.70
2019-05-15T14:49:25.338Z,92.70
2019-05-15T14:55:33.755Z,91.90
2019-05-15T15:01:31.996Z,92.50
2019-05-15T15:07:34.352Z,93.20
2019-05-15T15:13:38.174Z,92.40
2019-05-15T15:19:42.117Z,92.50
2019-05-15T15:25:44.881Z,93.00
2019-05-15T15:31:49.471Z,93.10
2019-05-15T15:37:52.420Z,92.80
2019-05-15T15:43:55.551Z,93.40
2019-05-15T15:49:58.537Z,93.30
2019-05-15T15:56:00.938Z,93.50
2019-05-15T16:02:03.296Z,93.30
2019-05-15T16:08:08.259Z,93.80
2019-05-15T16:14:10.458Z,94.20
2019-05-15T16:20:12.920Z,94.50
2019-05-15T16:26:15.099Z,94.60
2019-05-15T16:32:21.108Z,94.30
2019-05-15T16:38:21.314Z,94.60
2019-05-15T16:44:23.524Z,95.00
2019-05-15T16:50:25.719Z,95.10
2019-05-15T16:56:28.464Z,94.90
2019-05-15T17:02:32.217Z,94.60
2019-05-15T17:08:34.548Z,95.20
2019-05-15T17:14:39.082Z,94.70
2019-05-15T17:20:41.260Z,95.70
2019-05-15T17:26:43.479Z,95.30
2019-05-15T17:32:45.936Z,95.80
2019-05-15T17:38:48.842Z,95.80
2019-05-15T17:44:52.132Z,96.20
2019-05-15T17:50:54.804Z,96.10
2019-05-15T17:56:58.346Z,96.60
2019-05-15T18:03:01.152Z,96.60
2019-05-15T18:09:05.460Z,96.70
2019-05-15T18:15:09.013Z,96.80
2019-05-15T18:21:14.316Z,97.20
2019-05-15T18:27:18.581Z,97.40
2019-05-15T18:33:20.563Z,97.80
2019-05-15T18:39:22.805Z,97.50
2019-05-15T18:45:24.934Z,97.20
2019-05-15T18:51:28.178Z,97.80
2019-05-15T18:57:30.434Z,97.50
2019-05-15T19:03:33.141Z,97.60
2019-05-15T19:09:35.295Z,97.70
2019-05-15T19:15:38.136Z,97.90
2019-05-15T19:21:40.472Z,97.80
2019-05-15T19:27:44.156Z,98.00
2019-05-15T19:33:46.950Z,98.60
2019-05-15T19:39:51.481Z,98.70
2019-05-15T19:45:54.182Z,98.60
2019-05-15T19:51:58.112Z,98.90
2019-05-15T19:58:03.430Z,99.10
2019-05-15T20:04:08.227Z,99.00
2019-05-15T20:10:12.028Z,98.90
2019-05-15T20:16:20.671Z,99.40
2019-05-15T20:22:25.039Z,99.20
2019-05-15T20:28:28.615Z,99.40
2019-05-15T20:34:31.336Z,99.20
2019-05-15T20:40:34.516Z,99.30
2019-05-15T20:46:38.970Z,99.40
2019-05-15T20:52:40.977Z,99.40
2019-05-15T20:58:43.219Z,99.40
2019-05-15T21:04:45.389Z,99.50
2019-05-15T21:10:49.239Z,99.50
2019-05-15T21:16:55.694Z,99.60
2019-05-15T21:22:57.909Z,99.80
2019-05-15T21:29:01.822Z,99.90
2019-05-15T21:35:08.797Z,99.40
2019-05-15T21:41:11.709Z,99.60
2019-05-15T21:47:21.736Z,99.50
2019-05-15T21:53:23.932Z,99.70
2019-05-15T21:59:27.918Z,99.90
2019-05-15T22:05:30.155Z,99.90
2019-05-15T22:11:32.703Z,99.90
2019-05-15T22:17:38.611Z,99.90
2019-05-15T22:23:41.151Z,99.90
2019-05-15T22:29:43.540Z,99.90
2019-05-15T22:35:48.646Z,99.90
2019-05-15T22:41:49.919Z,99.90
2019-05-15T22:47:52.370Z,99.90
2019-05-15T22:53:54.543Z,99.90
2019-05-15T22:59:58.158Z,99.90
2019-05-15T23:06:00.769Z,99.90
2019-05-15T23:12:03.275Z,99.90
2019-05-15T23:18:08.553Z,99.90
2019-05-15T23:24:10.800Z,99.90
2019-05-15T23:30:12.955Z,99.90
2019-05-15T23:36:15.319Z,99.90
2019-05-15T23:42:18.791Z,99.90
2019-05-15T23:48:20.931Z,99.90
2019-05-15T23:54:23.191Z,99.90
